Time;durP1;ratioP1;P1;durP2;ratioP2;P2;SDS_P1;SDS_P2;PMS_P1;PMS_P2;Temp;Humidity;BMP_temperature;BMP_pressure;BME280_temperature;BME280_humidity;BME280_pressure;Samples;Min_cycle;Max_cycle;Signal;HPM_P1;HPM_P2
2022/11/25 00:01:21;;;;;;;11.57;5.90;;;4.50;92.70;;;;;;4937978;29;20463;-71
2022/11/25 00:03:48;;;;;;;16.37;7.33;;;4.40;92.70;;;;;;4940424;28;20184;-71
2022/11/25 00:06:19;;;;;;;14.87;7.83;;;4.40;92.90;;;;;;4946071;29;20770;-72
2022/11/25 00:08:48;;;;;;;15.93;7.00;;;4.40;93.10;;;;;;4951640;28;20440;-72
2022/11/25 00:11:14;;;;;;;12.43;6.00;;;4.40;93.10;;;;;;4946004;29;20439;-71
2022/11/25 00:13:41;;;;;;;15.47;6.90;;;4.50;93.20;;;;;;4944589;28;20436;-72
2022/11/25 00:16:12;;;;;;;10.47;5.50;;;4.50;92.90;;;;;;4937866;29;20511;-71
2022/11/25 00:18:39;;;;;;;11.60;6.17;;;4.50;92.90;;;;;;4937181;29;20472;-72
2022/11/25 00:21:09;;;;;;;16.13;5.90;;;4.50;92.80;;;;;;4938562;29;20644;-72
2022/11/25 00:23:36;;;;;;;16.13;6.40;;;4.60;92.70;;;;;;4941622;29;20436;-72
2022/11/25 00:26:07;;;;;;;12.80;5.47;;;4.50;92.50;;;;;;4938509;29;20425;-72
2022/11/25 00:28:32;;;;;;;10.90;5.83;;;4.50;92.60;;;;;;4938447;29;20479;-72
2022/11/25 00:31:10;;;;;;;13.70;6.60;;;4.50;92.70;;;;;;4943085;29;20476;-71
2022/11/25 00:33:36;;;;;;;16.37;5.90;;;4.50;92.70;;;;;;4943946;29;20250;-71
2022/11/25 00:36:03;;;;;;;13.57;6.67;;;4.40;92.70;;;;;;4944074;29;20432;-71
2022/11/25 00:38:29;;;;;;;9.27;5.23;;;4.50;92.70;;;;;;4938267;29;20480;-71
2022/11/25 00:44:34;;;;;;;10.03;5.57;;;4.50;92.80;;;;;;4947277;28;20479;-72
2022/11/25 00:46:26;;;;;;;14.23;5.80;;;4.60;92.80;;;;;;4933785;29;20416;-72
2022/11/25 00:48:52;;;;;;;15.63;6.00;;;4.60;92.60;;;;;;4944049;29;20431;-71
2022/11/25 00:51:17;;;;;;;9.80;4.87;;;4.60;92.70;;;;;;4941730;29;20184;-72
2022/11/25 00:53:43;;;;;;;9.70;6.93;;;4.70;92.70;;;;;;4943653;28;20655;-73
2022/11/25 00:56:12;;;;;;;10.60;4.80;;;4.70;92.60;;;;;;4946906;28;20664;-71
2022/11/25 00:58:38;;;;;;;8.80;5.37;;;4.70;92.60;;;;;;4950336;28;20809;-71
2022/11/25 01:01:03;;;;;;;10.17;4.93;;;4.80;92.60;;;;;;4935363;29;20990;-71
2022/11/25 01:03:29;;;;;;;13.23;5.40;;;4.80;92.50;;;;;;4946361;29;20505;-71
2022/11/25 01:06:00;;;;;;;12.63;5.87;;;4.80;92.40;;;;;;4946210;29;20188;-71
2022/11/25 01:08:25;;;;;;;11.80;4.60;;;4.90;92.30;;;;;;4952018;29;20180;-72
2022/11/25 01:11:00;;;;;;;12.70;5.37;;;4.90;92.20;;;;;;4945572;29;20472;-72
2022/11/25 01:13:26;;;;;;;8.03;5.03;;;5.00;92.00;;;;;;4945780;28;20184;-72
2022/11/25 01:15:52;;;;;;;8.90;4.60;;;4.90;91.90;;;;;;4947356;28;20478;-72
2022/11/25 01:18:17;;;;;;;6.70;4.60;;;5.00;91.70;;;;;;4937437;29;20311;-71
2022/11/25 01:20:43;;;;;;;15.40;5.90;;;5.00;91.60;;;;;;4934849;29;20205;-72
2022/11/25 01:23:09;;;;;;;9.27;4.70;;;5.00;91.60;;;;;;4938854;29;20184;-72
2022/11/25 01:25:38;;;;;;;7.40;4.73;;;5.10;91.50;;;;;;4946422;28;20558;-72
2022/11/25 01:28:04;;;;;;;8.93;4.47;;;5.10;91.40;;;;;;4938890;29;20189;-72
2022/11/25 01:30:30;;;;;;;7.30;4.20;;;5.20;91.40;;;;;;4941294;29;20464;-72
2022/11/25 01:32:56;;;;;;;9.60;4.20;;;5.20;91.40;;;;;;4944613;28;20909;-71
2022/11/25 01:35:22;;;;;;;7.67;4.50;;;5.20;91.30;;;;;;4947434;29;20201;-70
2022/11/25 01:37:47;;;;;;;9.60;4.83;;;5.20;91.20;;;;;;4948942;28;20304;-72
2022/11/25 01:40:13;;;;;;;9.40;5.00;;;5.20;91.00;;;;;;4947702;28;20208;-72
2022/11/25 01:42:46;;;;;;;10.83;4.80;;;5.20;91.20;;;;;;4955329;28;20181;-73
2022/11/25 01:45:21;;;;;;;14.40;5.80;;;5.30;91.20;;;;;;4946032;28;20420;-71
2022/11/25 01:47:49;;;;;;;17.23;6.23;;;5.20;91.10;;;;;;4941700;28;20903;-73
2022/11/25 01:50:18;;;;;;;15.47;7.37;;;5.10;91.00;;;;;;4943531;28;20459;-72
2022/11/25 01:52:47;;;;;;;11.27;6.63;;;5.10;91.30;;;;;;4944317;28;20424;-72
2022/11/25 01:55:28;;;;;;;23.57;8.13;;;5.10;91.30;;;;;;4955824;28;20542;-71
2022/11/25 01:58:00;;;;;;;14.00;7.20;;;5.10;91.30;;;;;;4937851;29;20468;-72
2022/11/25 02:00:25;;;;;;;17.03;7.57;;;5.20;91.40;;;;;;4944878;28;20932;-72
2022/11/25 02:02:53;;;;;;;10.17;5.70;;;5.30;91.20;;;;;;4940475;29;20439;-72
2022/11/25 02:05:23;;;;;;;11.73;6.20;;;5.20;91.10;;;;;;4941128;29;20180;-71
2022/11/25 02:07:51;;;;;;;15.03;5.87;;;5.20;91.20;;;;;;4935394;29;20433;-71
2022/11/25 02:10:23;;;;;;;11.03;5.63;;;5.30;91.30;;;;;;4936852;29;20472;-71
2022/11/25 02:12:49;;;;;;;6.80;4.63;;;5.40;91.30;;;;;;4937286;29;20478;-71
2022/11/25 02:15:15;;;;;;;7.90;4.13;;;5.40;91.20;;;;;;4941891;29;20420;-71
2022/11/25 02:17:44;;;;;;;8.70;4.50;;;5.30;91.10;;;;;;4938176;29;20491;-71
2022/11/25 02:20:13;;;;;;;6.67;4.20;;;5.40;91.20;;;;;;4951705;29;20457;-71
2022/11/25 02:23:04;;;;;;;19.33;9.00;;;5.40;91.00;;;;;;4956829;29;20427;-71
2022/11/25 02:25:34;;;;;;;15.30;10.10;;;5.20;90.70;;;;;;4957379;29;20420;-71
2022/11/25 02:28:12;;;;;;;12.77;7.57;;;5.20;91.00;;;;;;4950947;28;20426;-72
2022/11/25 02:30:38;;;;;;;14.70;7.40;;;5.20;91.10;;;;;;4938364;28;20842;-71
2022/11/25 02:33:05;;;;;;;15.57;6.27;;;5.20;91.00;;;;;;4944450;28;20892;-72
2022/11/25 02:35:42;;;;;;;15.97;5.47;;;5.20;91.10;;;;;;4945849;29;20419;-70
2022/11/25 02:38:21;;;;;;;7.10;4.70;;;5.20;91.10;;;;;;4943523;29;20454;-71
2022/11/25 02:41:03;;;;;;;17.40;7.43;;;5.20;91.20;;;;;;4949212;29;20825;-72
2022/11/25 02:43:29;;;;;;;8.53;4.97;;;5.10;91.10;;;;;;4951378;28;21143;-71
2022/11/25 02:46:09;;;;;;;15.23;7.77;;;5.10;91.20;;;;;;4944064;29;20498;-72
2022/11/25 02:48:37;;;;;;;11.83;6.70;;;5.10;91.40;;;;;;4944790;28;20235;-71
2022/11/25 02:51:04;;;;;;;13.60;6.30;;;5.10;91.40;;;;;;4936633;28;20452;-72
2022/11/25 02:53:30;;;;;;;11.27;5.73;;;5.10;91.30;;;;;;4941966;29;21066;-71
2022/11/25 02:55:55;;;;;;;10.80;5.70;;;5.20;91.30;;;;;;4941121;28;20469;-71
2022/11/25 02:58:21;;;;;;;12.20;5.80;;;5.20;91.30;;;;;;4936804;28;20232;-71
2022/11/25 03:00:46;;;;;;;8.50;5.10;;;5.10;91.20;;;;;;4933604;29;20236;-72
2022/11/25 03:03:12;;;;;;;8.47;4.70;;;5.10;91.20;;;;;;4939310;29;20172;-71
2022/11/25 03:05:38;;;;;;;8.30;5.03;;;5.00;91.30;;;;;;4947050;29;20195;-71
2022/11/25 03:08:05;;;;;;;10.93;6.17;;;5.00;91.30;;;;;;4946277;29;20447;-72
2022/11/25 03:10:31;;;;;;;11.97;5.30;;;5.00;91.30;;;;;;4942752;29;20746;-71
2022/11/25 03:12:57;;;;;;;12.80;5.93;;;5.00;91.40;;;;;;4944603;29;20520;-71
2022/11/25 03:15:23;;;;;;;9.10;5.57;;;5.00;91.40;;;;;;4951761;28;20456;-72
2022/11/25 03:17:50;;;;;;;11.47;5.57;;;5.00;91.40;;;;;;4950344;28;20664;-71
2022/11/25 03:20:15;;;;;;;10.13;5.37;;;4.90;91.30;;;;;;4935914;29;20464;-70
2022/11/25 03:22:42;;;;;;;8.50;5.10;;;4.90;91.40;;;;;;4946912;29;20419;-71
2022/11/25 03:25:08;;;;;;;10.10;5.30;;;4.90;91.60;;;;;;4953719;29;20184;-71
2022/11/25 03:27:35;;;;;;;9.83;4.77;;;4.90;91.70;;;;;;4954443;28;20454;-71
2022/11/25 03:30:01;;;;;;;8.10;4.63;;;5.00;91.80;;;;;;4948172;28;20491;-71
2022/11/25 03:32:26;;;;;;;10.23;4.93;;;5.00;91.70;;;;;;4963140;29;20431;-72
2022/11/25 03:34:52;;;;;;;11.60;6.17;;;4.90;91.50;;;;;;4951418;28;20193;-70
2022/11/25 03:37:18;;;;;;;10.03;5.17;;;4.80;91.60;;;;;;4947366;29;20184;-71
2022/11/25 03:39:44;;;;;;;9.77;5.00;;;4.70;91.80;;;;;;4942377;28;20218;-70
2022/11/25 03:42:10;;;;;;;7.37;4.50;;;4.70;92.10;;;;;;4944548;28;20501;-71
2022/11/25 03:44:35;;;;;;;11.33;5.77;;;4.70;92.30;;;;;;4948009;29;20463;-70
2022/11/25 03:47:01;;;;;;;18.97;6.30;;;4.70;92.30;;;;;;4935112;29;20195;-71
2022/11/25 03:49:26;;;;;;;13.80;5.83;;;4.80;92.40;;;;;;4935997;29;20207;-71
2022/11/25 03:51:52;;;;;;;8.97;4.90;;;4.80;92.30;;;;;;4935575;29;20694;-71
2022/11/25 03:54:18;;;;;;;12.27;5.17;;;4.80;92.30;;;;;;4935837;29;20211;-72
2022/11/25 03:56:43;;;;;;;9.43;4.80;;;4.70;92.00;;;;;;4940671;29;20180;-72
2022/11/25 03:59:09;;;;;;;10.80;5.37;;;4.80;91.90;;;;;;4940728;28;20576;-71
2022/11/25 04:01:34;;;;;;;8.77;5.13;;;4.70;91.90;;;;;;4936494;29;20697;-72
2022/11/25 04:04:00;;;;;;;10.90;5.37;;;4.60;91.90;;;;;;4937094;29;20184;-71
2022/11/25 04:06:25;;;;;;;12.27;5.23;;;4.60;92.10;;;;;;4939278;29;20575;-71
2022/11/25 04:08:51;;;;;;;9.37;4.80;;;4.60;92.20;;;;;;4932533;29;20185;-71
2022/11/25 04:11:17;;;;;;;10.23;5.03;;;4.60;92.30;;;;;;4949155;28;20561;-71
2022/11/25 04:13:43;;;;;;;9.47;5.33;;;4.60;92.30;;;;;;4943554;28;20181;-72
2022/11/25 04:16:24;;;;;;;17.03;5.20;;;4.50;92.30;;;;;;4944746;29;20184;-72
2022/11/25 04:18:50;;;;;;;10.70;5.03;;;4.50;92.40;;;;;;4944215;29;20251;-72
2022/11/25 04:21:16;;;;;;;11.20;5.97;;;4.60;92.50;;;;;;4940885;29;20851;-72
2022/11/25 04:23:41;;;;;;;10.40;5.50;;;4.50;92.50;;;;;;4941435;28;20204;-72
2022/11/25 04:26:07;;;;;;;13.03;5.60;;;4.50;92.50;;;;;;4946403;28;20188;-71
2022/11/25 04:28:32;;;;;;;8.50;4.70;;;4.50;92.60;;;;;;4935448;28;20601;-73
2022/11/25 04:30:58;;;;;;;14.07;5.07;;;4.50;92.70;;;;;;4936940;29;20299;-71
2022/11/25 04:33:23;;;;;;;8.10;5.10;;;4.60;92.70;;;;;;4935156;29;20251;-71
2022/11/25 04:35:49;;;;;;;12.23;6.00;;;4.60;92.70;;;;;;4939391;29;20200;-72
2022/11/25 04:38:15;;;;;;;12.00;6.47;;;4.60;92.70;;;;;;4933425;29;20220;-72
2022/11/25 04:40:40;;;;;;;10.03;5.77;;;4.60;92.80;;;;;;4936891;29;20197;-72
2022/11/25 04:43:06;;;;;;;10.70;7.30;;;4.60;92.70;;;;;;4939050;29;20239;-72
2022/11/25 04:45:31;;;;;;;9.73;4.87;;;4.60;92.70;;;;;;4937342;28;20550;-71
2022/11/25 04:47:57;;;;;;;7.93;3.90;;;4.60;92.70;;;;;;4932858;29;20189;-72
2022/11/25 04:50:23;;;;;;;10.13;5.73;;;4.70;92.90;;;;;;4936556;28;21119;-71
2022/11/25 04:52:49;;;;;;;7.50;4.40;;;4.80;92.90;;;;;;4941074;29;20189;-72
2022/11/25 04:55:15;;;;;;;9.60;4.90;;;4.80;92.70;;;;;;4944275;28;20498;-72
2022/11/25 04:57:40;;;;;;;16.23;4.53;;;4.80;92.70;;;;;;4941429;29;20535;-72
2022/11/25 05:00:08;;;;;;;12.47;5.23;;;4.80;92.60;;;;;;4942654;29;20295;-71
2022/11/25 05:02:34;;;;;;;7.60;4.57;;;4.90;92.50;;;;;;4939420;29;20200;-71
2022/11/25 05:05:00;;;;;;;12.83;5.57;;;4.80;92.50;;;;;;4940456;29;20836;-73
2022/11/25 05:07:27;;;;;;;9.10;5.30;;;4.80;92.50;;;;;;4940512;29;20187;-72
2022/11/25 05:09:53;;;;;;;15.67;6.17;;;4.70;92.40;;;;;;4943045;28;20464;-72
2022/11/25 05:12:22;;;;;;;11.60;5.50;;;4.70;92.40;;;;;;4947872;29;20938;-72
2022/11/25 05:14:48;;;;;;;9.90;6.20;;;4.70;92.30;;;;;;4946001;29;20191;-72
2022/11/25 05:17:20;;;;;;;9.90;5.63;;;4.70;92.40;;;;;;4942002;29;20428;-72
2022/11/25 05:19:46;;;;;;;11.53;5.57;;;4.70;92.30;;;;;;4937089;29;20456;-72
2022/11/25 05:22:13;;;;;;;9.03;5.47;;;4.70;92.30;;;;;;4936472;29;20797;-72
2022/11/25 05:24:39;;;;;;;12.10;6.20;;;4.70;92.20;;;;;;4941068;29;20613;-73
2022/11/25 05:27:05;;;;;;;14.50;6.33;;;4.70;92.20;;;;;;4944192;29;21001;-72
2022/11/25 05:29:31;;;;;;;11.17;6.33;;;4.70;92.20;;;;;;4940147;28;20204;-72
2022/11/25 05:31:56;;;;;;;11.90;6.67;;;4.60;92.10;;;;;;4938159;28;21320;-72
2022/11/25 05:34:22;;;;;;;15.60;7.73;;;4.70;92.20;;;;;;4947796;28;20180;-72
2022/11/25 05:36:48;;;;;;;12.30;7.37;;;4.50;92.00;;;;;;4938278;29;21177;-73
2022/11/25 05:39:13;;;;;;;10.97;6.90;;;4.50;92.00;;;;;;4939826;28;20223;-72
2022/11/25 05:41:39;;;;;;;18.70;7.90;;;4.50;92.00;;;;;;4943990;28;20181;-71
2022/11/25 05:44:05;;;;;;;11.23;6.80;;;4.50;92.00;;;;;;4946308;28;20550;-71
2022/11/25 05:46:30;;;;;;;11.57;7.53;;;4.40;92.00;;;;;;4940548;28;20177;-72
2022/11/25 05:48:57;;;;;;;18.33;7.93;;;4.40;92.10;;;;;;4936429;29;20223;-72
2022/11/25 05:51:24;;;;;;;15.40;7.83;;;4.40;92.10;;;;;;4938818;29;20190;-72
2022/11/25 05:53:50;;;;;;;13.10;7.43;;;4.30;92.10;;;;;;4943593;28;20424;-72
2022/11/25 05:56:16;;;;;;;17.33;8.47;;;4.30;92.20;;;;;;4943152;29;20456;-72
2022/11/25 05:58:42;;;;;;;13.10;7.53;;;4.20;92.10;;;;;;4942101;28;20493;-72
2022/11/25 06:01:09;;;;;;;16.27;7.90;;;4.20;92.10;;;;;;4938603;29;20979;-73
2022/11/25 06:03:35;;;;;;;11.97;8.57;;;4.20;92.40;;;;;;4948106;28;20180;-71
2022/11/25 06:06:01;;;;;;;13.67;7.80;;;4.20;92.40;;;;;;4942850;29;20499;-72
2022/11/25 06:08:27;;;;;;;19.27;9.13;;;4.10;92.40;;;;;;4942928;29;20455;-73
2022/11/25 06:10:53;;;;;;;17.73;8.77;;;4.10;92.30;;;;;;4935158;29;20603;-72
2022/11/25 06:13:19;;;;;;;16.53;8.87;;;4.00;92.30;;;;;;4934551;29;20425;-73
2022/11/25 06:15:45;;;;;;;17.57;8.83;;;4.00;92.30;;;;;;4941719;29;20431;-72
2022/11/25 06:18:12;;;;;;;18.80;8.80;;;4.00;92.40;;;;;;4942545;28;20668;-73
2022/11/25 06:20:38;;;;;;;15.00;9.40;;;4.00;92.40;;;;;;4934033;29;20472;-71
2022/11/25 06:23:04;;;;;;;12.30;7.10;;;4.00;92.50;;;;;;4942035;29;20922;-73
2022/11/25 06:25:30;;;;;;;15.83;8.67;;;3.90;92.40;;;;;;4940379;29;20436;-72
2022/11/25 06:27:56;;;;;;;13.90;8.70;;;3.90;92.50;;;;;;4937854;29;20240;-72
2022/11/25 06:30:22;;;;;;;12.60;7.87;;;4.00;92.70;;;;;;4941310;29;20827;-73
2022/11/25 06:32:48;;;;;;;16.53;8.70;;;3.90;92.70;;;;;;4943202;28;20463;-73
2022/11/25 06:35:13;;;;;;;23.80;8.90;;;3.90;92.70;;;;;;4938551;28;20208;-73
2022/11/25 06:37:39;;;;;;;16.47;8.40;;;3.90;92.80;;;;;;4946738;28;20217;-72
2022/11/25 06:40:05;;;;;;;14.77;8.93;;;3.90;93.00;;;;;;4936077;29;20209;-73
2022/11/25 06:42:31;;;;;;;16.03;9.70;;;3.90;93.00;;;;;;4941653;28;20185;-73
2022/11/25 06:44:56;;;;;;;18.40;8.77;;;3.90;93.10;;;;;;4946629;28;20439;-72
2022/11/25 06:47:22;;;;;;;14.50;8.47;;;4.00;93.10;;;;;;4945581;28;20180;-71
2022/11/25 06:49:48;;;;;;;20.63;9.53;;;3.90;93.00;;;;;;4951938;29;20276;-72
2022/11/25 06:52:13;;;;;;;16.37;8.43;;;3.80;92.90;;;;;;4951288;28;20187;-73
2022/11/25 06:54:40;;;;;;;21.50;9.03;;;3.80;93.10;;;;;;4951718;29;20204;-72
2022/11/25 06:57:10;;;;;;;14.70;8.57;;;3.90;93.10;;;;;;4950483;28;20296;-72
2022/11/25 06:59:36;;;;;;;16.67;8.00;;;3.90;93.10;;;;;;4942499;28;20519;-71
2022/11/25 07:02:02;;;;;;;13.53;7.97;;;4.00;93.10;;;;;;4945901;28;20912;-73
2022/11/25 07:04:28;;;;;;;17.50;8.80;;;4.00;93.00;;;;;;4941249;29;20233;-71
2022/11/25 07:06:54;;;;;;;17.87;8.30;;;4.10;93.10;;;;;;4939430;29;20492;-74
2022/11/25 07:09:21;;;;;;;14.70;7.30;;;4.20;93.10;;;;;;4943142;29;20575;-72
2022/11/25 07:11:46;;;;;;;17.33;7.97;;;4.30;93.20;;;;;;4939018;29;20279;-71
2022/11/25 07:14:15;;;;;;;15.20;8.47;;;4.40;93.20;;;;;;4948722;28;20458;-72
2022/11/25 07:16:43;;;;;;;17.10;7.87;;;4.50;93.20;;;;;;4942156;28;20188;-72
2022/11/25 07:19:14;;;;;;;14.43;7.73;;;4.60;93.00;;;;;;4943989;29;20633;-73
2022/11/25 07:21:40;;;;;;;15.77;8.40;;;4.70;92.80;;;;;;4938041;28;20924;-73
2022/11/25 07:24:06;;;;;;;18.30;8.43;;;4.60;92.50;;;;;;4940173;29;20508;-73
2022/11/25 07:26:36;;;;;;;15.20;7.40;;;4.70;92.40;;;;;;4935221;28;20424;-72
2022/11/25 07:29:05;;;;;;;12.47;6.80;;;4.70;92.40;;;;;;4947343;29;20528;-73
2022/11/25 07:31:33;;;;;;;11.73;6.47;;;4.80;92.10;;;;;;4941349;29;20463;-72
2022/11/25 07:34:03;;;;;;;10.97;6.70;;;4.90;91.90;;;;;;4949885;29;20558;-72
2022/11/25 07:36:30;;;;;;;15.03;6.63;;;5.00;91.80;;;;;;4944731;29;20431;-73
2022/11/25 07:39:02;;;;;;;10.97;6.77;;;5.10;91.70;;;;;;4946312;29;20558;-74
2022/11/25 07:41:28;;;;;;;13.13;6.70;;;5.10;90.60;;;;;;4942370;29;20476;-74
2022/11/25 07:43:57;;;;;;;13.93;6.90;;;5.10;90.60;;;;;;4945741;29;20487;-73
2022/11/25 07:46:30;;;;;;;13.33;7.10;;;5.30;90.70;;;;;;4957320;28;20417;-73
2022/11/25 07:48:59;;;;;;;13.23;6.50;;;5.30;90.50;;;;;;4941151;29;20435;-74
2022/11/25 07:51:28;;;;;;;16.00;7.40;;;5.40;90.50;;;;;;4941125;29;20644;-73
2022/11/25 07:53:56;;;;;;;12.70;6.87;;;5.60;90.50;;;;;;4939084;29;20433;-73
2022/11/25 07:56:22;;;;;;;11.70;5.67;;;5.80;90.30;;;;;;4936568;29;20511;-75
2022/11/25 07:58:48;;;;;;;8.27;5.40;;;5.90;89.70;;;;;;4940255;28;20471;-75
2022/11/25 08:01:15;;;;;;;9.03;5.50;;;5.90;88.90;;;;;;4951285;29;20458;-76
2022/11/25 08:03:43;;;;;;;11.80;5.70;;;6.00;88.90;;;;;;4939348;29;20448;-75
2022/11/25 08:06:11;;;;;;;10.37;5.47;;;6.00;88.30;;;;;;4950184;28;20413;-76
2022/11/25 08:08:38;;;;;;;10.03;5.47;;;6.00;87.70;;;;;;4949081;28;20431;-75
2022/11/25 08:11:21;;;;;;;13.50;6.40;;;6.20;88.00;;;;;;4945030;29;20468;-76
2022/11/25 08:13:47;;;;;;;13.37;6.30;;;6.20;87.40;;;;;;4945782;29;20424;-75
2022/11/25 08:16:15;;;;;;;18.43;6.90;;;6.20;87.30;;;;;;4946345;29;20967;-73
2022/11/25 08:18:41;;;;;;;12.57;6.53;;;6.30;87.30;;;;;;4942801;28;20217;-74
2022/11/25 08:21:09;;;;;;;11.50;5.83;;;6.40;87.40;;;;;;4937189;28;20478;-75
2022/11/25 08:23:36;;;;;;;12.33;5.50;;;6.50;87.30;;;;;;4939393;29;20432;-73
2022/11/25 08:26:05;;;;;;;8.40;4.50;;;6.50;86.80;;;;;;4948492;28;20946;-75
2022/11/25 08:28:30;;;;;;;10.77;5.23;;;6.30;87.40;;;;;;4946328;29;20427;-74
2022/11/25 08:31:05;;;;;;;12.30;5.43;;;6.30;88.00;;;;;;4945627;28;20473;-72
2022/11/25 08:33:30;;;;;;;13.70;5.23;;;6.40;88.10;;;;;;4946900;29;20834;-72
2022/11/25 08:35:56;;;;;;;6.97;4.30;;;6.60;88.10;;;;;;4947287;29;20435;-73
2022/11/25 08:38:25;;;;;;;10.40;4.60;;;6.70;87.60;;;;;;4941503;29;20588;-73
2022/11/25 08:40:51;;;;;;;9.07;4.87;;;6.80;87.00;;;;;;4945443;29;20212;-74
2022/11/25 08:43:18;;;;;;;10.13;6.23;;;7.00;86.90;;;;;;4946742;28;20981;-74
2022/11/25 08:45:44;;;;;;;13.80;6.27;;;7.00;86.60;;;;;;4944085;29;20231;-75
2022/11/25 08:48:09;;;;;;;6.77;4.70;;;6.90;86.90;;;;;;4943253;28;20417;-74
2022/11/25 08:50:35;;;;;;;10.27;5.57;;;6.80;87.40;;;;;;4945170;28;21069;-74
2022/11/25 08:53:01;;;;;;;8.27;5.00;;;6.90;87.70;;;;;;4941805;29;20189;-74
2022/11/25 08:55:27;;;;;;;7.73;5.20;;;7.00;88.00;;;;;;4942015;28;20555;-74
2022/11/25 08:57:53;;;;;;;10.33;5.30;;;7.10;87.80;;;;;;4945712;28;20476;-74
2022/11/25 09:00:20;;;;;;;8.20;4.90;;;7.20;87.70;;;;;;4939542;28;20547;-75
2022/11/25 09:02:46;;;;;;;10.03;4.70;;;7.30;87.80;;;;;;4944171;29;20444;-73
2022/11/25 09:05:15;;;;;;;8.37;5.10;;;7.40;87.70;;;;;;4940055;28;20431;-74
2022/11/25 09:07:41;;;;;;;7.97;4.63;;;7.50;87.10;;;;;;4945525;29;20497;-75
2022/11/25 09:10:12;;;;;;;10.70;5.17;;;7.60;86.60;;;;;;4947636;29;21028;-72
2022/11/25 09:12:37;;;;;;;13.13;5.60;;;7.80;86.30;;;;;;4944874;28;20508;-73
2022/11/25 09:15:04;;;;;;;15.13;5.57;;;8.00;86.20;;;;;;4942877;28;20607;-72
2022/11/25 09:17:30;;;;;;;10.30;4.77;;;8.00;85.30;;;;;;4945474;29;20199;-74
2022/11/25 09:19:56;;;;;;;11.10;4.97;;;8.00;84.40;;;;;;4942109;28;20464;-73
2022/11/25 09:22:21;;;;;;;10.10;4.77;;;8.10;84.30;;;;;;4940155;29;20436;-73
2022/11/25 09:24:47;;;;;;;11.10;4.87;;;8.30;84.10;;;;;;4944206;28;20187;-72
2022/11/25 09:27:12;;;;;;;10.73;5.40;;;8.50;83.80;;;;;;4942162;29;20188;-72
2022/11/25 09:29:38;;;;;;;9.13;5.07;;;8.60;82.70;;;;;;4938580;29;20224;-73
2022/11/25 09:32:04;;;;;;;10.53;4.97;;;8.50;81.90;;;;;;4947338;28;20183;-72
2022/11/25 09:34:29;;;;;;;5.90;4.00;;;8.50;81.90;;;;;;4945902;28;20286;-74
2022/11/25 09:36:55;;;;;;;9.50;4.80;;;8.50;81.90;;;;;;4947466;29;20193;-73
2022/11/25 09:39:20;;;;;;;9.50;4.20;;;8.50;82.10;;;;;;4938170;29;20215;-72
2022/11/25 09:48:13;;;;;;;9.10;4.37;;;8.80;81.40;;;;;;4938406;29;20511;-73
2022/11/25 09:50:55;;;;;;;8.20;4.43;;;8.90;81.20;;;;;;4938995;29;20468;-75
2022/11/25 09:53:40;;;;;;;9.53;4.30;;;9.20;81.40;;;;;;4940623;29;20931;-74
2022/11/25 09:56:18;;;;;;;12.20;5.80;;;9.30;80.50;;;;;;4942052;29;20433;-75
2022/11/25 09:58:50;;;;;;;8.53;4.50;;;9.30;79.50;;;;;;4941323;29;20473;-74
2022/11/25 10:01:21;;;;;;;9.77;5.53;;;9.30;79.50;;;;;;4940254;28;20467;-74
2022/11/25 10:04:02;;;;;;;15.33;6.83;;;9.50;80.00;;;;;;4943372;28;20545;-75
2022/11/25 10:06:34;;;;;;;14.07;6.47;;;9.30;79.30;;;;;;4948169;29;20419;-75
2022/11/25 10:09:11;;;;;;;14.53;7.73;;;9.30;80.00;;;;;;4942492;29;20440;-74
2022/11/25 10:11:57;;;;;;;32.00;9.73;;;9.30;80.80;;;;;;4946302;29;21071;-76
2022/11/25 10:14:45;;;;;;;21.60;9.40;;;9.20;80.00;;;;;;4941169;29;20420;-72
2022/11/25 10:17:29;;;;;;;19.50;9.20;;;8.90;81.40;;;;;;4947207;28;20442;-73
2022/11/25 10:20:24;;;;;;;17.67;11.17;;;8.70;82.40;;;;;;4955428;29;20561;-72
2022/11/25 10:22:56;;;;;;;22.83;9.70;;;8.50;83.40;;;;;;4964172;29;20419;-73
2022/11/25 10:25:24;;;;;;;22.60;10.30;;;8.40;84.00;;;;;;4958138;28;20432;-73
2022/11/25 10:28:00;;;;;;;18.50;9.60;;;8.60;84.30;;;;;;4962438;29;20488;-74
2022/11/25 10:30:37;;;;;;;18.27;8.90;;;8.90;84.10;;;;;;4942013;29;20534;-73
2022/11/25 10:33:12;;;;;;;18.73;8.40;;;9.10;83.10;;;;;;4940904;29;20531;-73
2022/11/25 10:35:55;;;;;;;18.93;8.80;;;9.20;82.70;;;;;;4941870;29;20415;-75
2022/11/25 10:38:37;;;;;;;12.90;7.10;;;9.40;81.80;;;;;;4945438;28;20538;-75
2022/11/25 10:41:04;;;;;;;12.20;7.10;;;9.40;80.50;;;;;;4944864;29;20470;-75
2022/11/25 10:43:31;;;;;;;13.90;7.13;;;9.60;80.50;;;;;;4943831;28;21088;-73
2022/11/25 10:46:03;;;;;;;15.77;8.07;;;9.60;79.60;;;;;;4946902;29;20923;-75
2022/11/25 10:48:52;;;;;;;13.63;5.90;;;9.70;79.60;;;;;;4938964;29;20428;-72
2022/11/25 10:51:33;;;;;;;7.03;4.07;;;9.80;79.60;;;;;;4939067;28;20543;-75
2022/11/25 10:54:22;;;;;;;10.57;5.40;;;10.10;79.20;;;;;;4943189;29;20464;-76
2022/11/25 10:56:52;;;;;;;9.07;4.37;;;10.30;78.00;;;;;;4946617;28;20443;-75
2022/11/25 10:59:30;;;;;;;6.93;3.80;;;10.40;77.80;;;;;;4938736;29;20523;-74
2022/11/25 11:02:25;;;;;;;8.10;4.07;;;10.40;77.60;;;;;;4943515;29;20477;-73
2022/11/25 11:05:02;;;;;;;9.67;5.40;;;10.50;77.40;;;;;;4943269;28;20424;-74
2022/11/25 11:07:34;;;;;;;15.10;7.80;;;10.50;77.40;;;;;;4943308;29;20438;-74
2022/11/25 11:10:21;;;;;;;8.50;5.20;;;10.40;77.70;;;;;;4940063;29;21002;-75
2022/11/25 11:13:01;;;;;;;10.13;5.40;;;10.40;77.70;;;;;;4944978;29;20427;-76
2022/11/25 11:15:48;;;;;;;12.40;5.00;;;10.50;77.40;;;;;;4949925;29;20890;-75
2022/11/25 11:18:23;;;;;;;10.17;6.33;;;10.50;77.80;;;;;;4939659;29;20460;-73
2022/11/25 11:20:52;;;;;;;22.80;8.37;;;10.50;77.40;;;;;;4943152;29;20582;-74
2022/11/25 11:23:18;;;;;;;17.30;9.80;;;10.30;77.70;;;;;;4936938;29;20417;-74
2022/11/25 11:25:57;;;;;;;16.27;9.80;;;10.00;77.80;;;;;;4939414;29;20427;-75
2022/11/25 11:28:36;;;;;;;20.67;9.40;;;9.70;79.20;;;;;;4942661;29;20623;-74
2022/11/25 11:31:03;;;;;;;19.93;10.67;;;9.60;79.70;;;;;;4939419;29;20471;-75
2022/11/25 11:33:34;;;;;;;17.97;9.40;;;9.30;80.50;;;;;;4944344;29;20432;-74
2022/11/25 11:36:00;;;;;;;20.93;11.20;;;9.40;81.20;;;;;;4945020;28;20437;-74
2022/11/25 11:38:38;;;;;;;22.90;10.80;;;9.00;81.80;;;;;;4942434;29;20482;-73
2022/11/25 11:41:22;;;;;;;18.90;10.50;;;8.70;83.70;;;;;;4943437;29;20204;-75
2022/11/25 11:44:10;;;;;;;17.40;10.20;;;8.50;84.10;;;;;;4943330;29;20471;-74
2022/11/25 11:47:11;;;;;;;14.47;8.37;;;8.50;84.40;;;;;;4939792;29;20435;-75
2022/11/25 11:49:58;;;;;;;17.70;8.70;;;8.60;84.60;;;;;;4948357;29;20502;-75
2022/11/25 11:52:31;;;;;;;15.67;7.83;;;8.70;84.60;;;;;;4938823;29;21222;-75
2022/11/25 11:55:13;;;;;;;16.03;7.57;;;8.70;84.90;;;;;;4949397;29;20789;-76
2022/11/25 11:57:52;;;;;;;15.10;6.20;;;8.70;85.20;;;;;;4942819;28;20503;-75
2022/11/25 12:00:19;;;;;;;11.07;6.07;;;8.80;86.30;;;;;;4946311;29;20932;-74
2022/11/25 12:02:58;;;;;;;17.53;6.50;;;8.90;86.80;;;;;;4944226;29;20870;-74
2022/11/25 12:05:28;;;;;;;12.30;5.90;;;9.00;86.90;;;;;;4944403;29;20458;-74
2022/11/25 12:08:21;;;;;;;10.67;6.07;;;9.00;87.10;;;;;;4944618;29;20468;-74
2022/11/25 12:10:59;;;;;;;10.93;5.90;;;9.00;87.70;;;;;;4945894;29;20475;-74
2022/11/25 12:13:41;;;;;;;11.27;5.63;;;9.20;88.00;;;;;;4951139;29;20442;-74
2022/11/25 12:16:16;;;;;;;8.73;4.63;;;9.30;88.00;;;;;;4945956;29;20686;-73
2022/11/25 12:18:50;;;;;;;12.83;6.40;;;9.50;88.00;;;;;;4950350;28;20480;-73
2022/11/25 12:21:39;;;;;;;14.10;7.20;;;9.60;88.00;;;;;;4944674;29;20435;-76
2022/11/25 12:24:23;;;;;;;17.53;8.70;;;9.60;87.40;;;;;;4944165;29;20516;-75
2022/11/25 12:27:03;;;;;;;20.97;9.30;;;9.60;87.00;;;;;;4939160;29;20773;-74
2022/11/25 12:29:41;;;;;;;13.90;7.73;;;9.60;86.90;;;;;;4941984;28;20567;-72
2022/11/25 12:32:29;;;;;;;16.07;8.50;;;9.60;86.90;;;;;;4939835;29;20535;-75
2022/11/25 12:35:10;;;;;;;14.37;8.17;;;9.60;87.00;;;;;;4935095;29;20448;-74
2022/11/25 12:38:03;;;;;;;10.40;5.90;;;9.60;87.00;;;;;;4948309;29;20443;-75
2022/11/25 12:40:47;;;;;;;12.83;5.43;;;9.70;86.80;;;;;;4941600;28;21162;-73
2022/11/25 12:43:42;;;;;;;15.10;7.17;;;9.70;86.30;;;;;;4943293;29;21061;-76
2022/11/25 12:46:26;;;;;;;10.83;5.20;;;9.60;86.60;;;;;;4943635;29;20438;-76
2022/11/25 12:48:53;;;;;;;8.77;5.00;;;9.70;86.90;;;;;;4943391;28;20435;-73
2022/11/25 12:51:19;;;;;;;12.10;5.40;;;9.70;87.00;;;;;;4940971;28;20475;-75
2022/11/25 12:54:02;;;;;;;13.67;6.73;;;9.70;86.80;;;;;;4953626;28;20427;-73
2022/11/25 12:56:59;;;;;;;17.90;6.80;;;9.50;87.00;;;;;;4963964;29;20200;-73
2022/11/25 12:59:43;;;;;;;17.33;8.60;;;9.30;88.00;;;;;;4963963;29;20572;-72
2022/11/25 13:02:33;;;;;;;20.13;7.50;;;9.20;89.00;;;;;;4959893;29;20448;-75
2022/11/25 13:05:29;;;;;;;16.03;7.13;;;9.10;88.90;;;;;;4953565;29;20423;-76
2022/11/25 13:08:18;;;;;;;19.03;8.00;;;9.00;88.70;;;;;;4943769;29;20939;-75
2022/11/25 13:11:06;;;;;;;18.10;9.33;;;8.90;89.20;;;;;;4941895;29;20561;-77
2022/11/25 13:13:58;;;;;;;18.23;8.10;;;8.90;89.50;;;;;;4939883;29;20518;-76